Au Sable, Michigan
Current Conditions -  °F | °C
As of 2:34 PM on Thursday 23 Oct 2014 (Local Time) from KOSC Reporting Station
Clear Clear  
Wind Chill: 11°   Ceiling: Unl
Heat Index: 11°   Visibility: 10mi
Dew Point:   Wind: 5mph
Humidity: 62%   Direction: 230°SW
Pressure: 30.16"   Gusts: NA
Location:  44.4539°N, 83.4813°W
Report Text: KOSC 231834Z AUTO 23004KT 10SM CLR 10/03 A3016 RMK AO2 T01050035
Loading
Personal Weather Stations






























Interactive Weather Map
Tropical Storm Tracking
New forecast layout! Learn more

10-Day Weather Forecast

Advertisements
Track Severe Weather on mobile